Time;durP1;ratioP1;P1;durP2;ratioP2;P2;SDS_P1;SDS_P2;PMS_P1;PMS_P2;Temp;Humidity;BMP_temperature;BMP_pressure;BME280_temperature;BME280_humidity;BME280_pressure;Samples;Min_cycle;Max_cycle;Signal;HPM_P1;HPM_P2
2022/05/26 00:02:19;;;;;;;;;3.00;3.00;;;;;16.33;54.91;99996.50;5057146;28;8958;-64
2022/05/26 00:04:46;;;;;;;;;3.00;2.00;;;;;16.32;55.28;99991.31;5057464;28;8988;-64
2022/05/26 00:07:14;;;;;;;;;3.00;3.00;;;;;16.28;55.77;99993.47;5056872;28;8830;-64
2022/05/26 00:09:42;;;;;;;;;3.00;3.00;;;;;16.26;55.73;99994.63;5057637;28;8814;-64
2022/05/26 00:12:10;;;;;;;;;1.00;0.25;;;;;16.24;56.03;99991.22;5056936;28;8834;-63
2022/05/26 00:14:38;;;;;;;;;2.00;2.00;;;;;16.21;56.12;99991.56;5056926;28;8865;-63
2022/05/26 00:17:06;;;;;;;;;1.00;0.75;;;;;16.18;56.32;99981.94;5057606;28;8838;-63
2022/05/26 00:19:33;;;;;;;;;1.50;1.50;;;;;16.16;56.80;99993.03;5057224;28;9531;-64
2022/05/26 00:22:02;;;;;;;;;3.00;3.00;;;;;16.14;56.71;99989.66;5054470;28;8822;-64
2022/05/26 00:24:29;;;;;;;;;2.50;2.00;;;;;16.11;57.16;99989.94;5057218;28;8996;-64
2022/05/26 00:26:57;;;;;;;;;3.00;3.00;;;;;16.10;56.70;99982.91;5057146;28;8968;-63
2022/05/26 00:29:25;;;;;;;;;4.00;3.00;;;;;16.06;57.16;99985.03;5040969;28;8878;-64
2022/05/26 00:31:52;;;;;;;;;1.00;1.00;;;;;16.04;57.12;99979.00;5037170;28;8832;-64
2022/05/26 00:34:20;;;;;;;;;3.25;3.25;;;;;16.04;57.59;99972.75;5037038;28;8845;-64
2022/05/26 00:36:49;;;;;;;;;3.00;3.00;;;;;16.03;57.44;99979.13;5037083;28;8979;-68
2022/05/26 00:39:17;;;;;;;;;3.00;3.00;;;;;16.03;57.82;99987.19;5036804;28;8858;-64
2022/05/26 00:41:45;;;;;;;;;3.00;3.00;;;;;16.02;57.89;99986.38;5035648;28;8844;-64
2022/05/26 00:44:12;;;;;;;;;3.00;3.00;;;;;16.02;57.48;99990.88;5036454;28;9015;-64
2022/05/26 00:46:40;;;;;;;;;1.50;1.50;;;;;16.00;58.09;99992.91;5036206;28;8829;-63
2022/05/26 00:49:08;;;;;;;;;4.50;3.25;;;;;16.00;57.71;99992.91;5035859;28;8836;-64
2022/05/26 00:51:37;;;;;;;;;2.50;2.50;;;;;16.00;57.91;99993.72;5036553;28;8868;-64
2022/05/26 00:54:04;;;;;;;;;1.00;1.00;;;;;15.99;57.81;99975.09;5036725;28;8918;-64
2022/05/26 00:56:33;;;;;;;;;1.50;1.00;;;;;16.00;58.19;99977.59;5036613;28;8833;-64
2022/05/26 00:59:00;;;;;;;;;2.50;2.50;;;;;16.00;57.98;99992.91;5047538;28;8827;-65
2022/05/26 01:01:29;;;;;;;;;0.75;0.75;;;;;15.99;58.20;99992.03;5055687;28;8844;-64
2022/05/26 01:03:56;;;;;;;;;4.00;4.00;;;;;15.98;58.23;99993.03;5055290;28;8868;-64
2022/05/26 01:06:24;;;;;;;;;3.00;1.50;;;;;15.97;58.00;99988.66;5054844;28;8818;-64
2022/05/26 01:08:52;;;;;;;;;3.00;3.00;;;;;15.97;57.83;99991.34;5055680;28;8858;-64
2022/05/26 01:11:21;;;;;;;;;1.00;1.00;;;;;15.98;58.25;99989.50;5054837;28;8968;-64
2022/05/26 01:13:49;;;;;;;;;3.25;3.25;;;;;15.97;58.48;99987.81;5056072;28;9026;-64
2022/05/26 01:16:16;;;;;;;;;1.50;1.00;;;;;15.95;58.41;99985.31;5055767;28;8834;-64
2022/05/26 01:18:44;;;;;;;;;4.00;3.25;;;;;15.96;58.64;99999.56;5056476;28;9500;-65
2022/05/26 01:21:12;;;;;;;;;3.00;3.00;;;;;15.94;58.82;99993.50;5056125;28;8838;-64
2022/05/26 01:23:40;;;;;;;;;3.00;3.00;;;;;15.92;58.79;99993.66;5056183;28;8961;-64
2022/05/26 01:26:07;;;;;;;;;4.00;4.00;;;;;15.92;58.65;99985.59;5056054;28;8846;-64
2022/05/26 01:28:35;;;;;;;;;4.00;4.00;;;;;15.92;58.58;99999.03;5047531;28;9536;-64
2022/05/26 01:31:03;;;;;;;;;4.50;4.50;;;;;15.91;58.56;99989.28;5035758;28;8844;-64
2022/05/26 01:33:31;;;;;;;;;3.25;2.00;;;;;15.90;59.25;99992.97;5035651;28;9010;-64
2022/05/26 01:35:59;;;;;;;;;3.50;3.50;;;;;15.89;58.87;99999.34;5035668;28;8813;-64
2022/05/26 01:38:27;;;;;;;;;3.00;3.00;;;;;15.88;58.99;99986.06;5035853;28;8828;-65
2022/05/26 01:40:55;;;;;;;;;3.00;3.00;;;;;15.88;59.05;99991.44;5035896;28;8947;-64
2022/05/26 01:43:23;;;;;;;;;2.50;2.50;;;;;15.86;58.99;99990.75;5035934;28;8880;-64
2022/05/26 01:45:50;;;;;;;;;0.75;0.75;;;;;15.85;58.89;99992.56;5036683;28;8839;-65
2022/05/26 01:48:18;;;;;;;;;3.50;3.00;;;;;15.86;59.12;100004.19;5035255;28;8824;-64
2022/05/26 01:50:46;;;;;;;;;1.00;1.00;;;;;15.85;59.73;99989.06;5035992;28;8844;-64
2022/05/26 01:53:14;;;;;;;;;3.00;3.00;;;;;15.85;59.34;99999.81;5035573;28;8852;-64
2022/05/26 01:55:41;;;;;;;;;1.50;1.50;;;;;15.84;59.88;99998.13;5035387;28;8844;-64
2022/05/26 01:58:09;;;;;;;;;5.50;5.50;;;;;15.83;60.01;99991.03;5038480;28;8842;-64
2022/05/26 02:00:37;;;;;;;;;3.75;3.75;;;;;15.81;59.39;99993.03;5035013;28;8832;-65
2022/05/26 02:03:07;;;;;;;;;2.00;1.00;;;;;15.81;60.11;99998.41;5035223;28;8840;-64
2022/05/26 02:05:35;;;;;;;;;2.00;2.00;;;;;15.81;60.27;99998.41;5035380;28;8963;-64
2022/05/26 02:08:03;;;;;;;;;3.00;3.00;;;;;15.82;60.06;100016.22;5035589;28;8840;-64
2022/05/26 02:10:31;;;;;;;;;3.00;3.00;;;;;15.81;59.83;99995.72;5035588;28;8886;-64
2022/05/26 02:12:59;;;;;;;;;3.75;3.00;;;;;15.79;60.27;99998.56;5035478;28;8991;-64
2022/05/26 02:15:26;;;;;;;;;6.00;5.00;;;;;15.79;60.47;100003.09;5035135;28;8860;-64
2022/05/26 02:17:54;;;;;;;;;3.75;3.25;;;;;15.76;59.81;99996.19;5035333;28;8998;-64
2022/05/26 02:20:24;;;;;;;;;3.25;3.25;;;;;15.76;60.85;100006.94;5035871;28;8824;-64
2022/05/26 02:22:52;;;;;;;;;6.75;4.00;;;;;15.74;60.81;99995.50;5035250;28;9613;-65
2022/05/26 02:25:19;;;;;;;;;3.00;1.00;;;;;15.73;60.94;100006.41;5035522;28;8987;-65
2022/05/26 02:27:47;;;;;;;;;3.00;3.00;;;;;15.73;60.81;100006.41;5035613;28;9008;-65
2022/05/26 02:30:14;;;;;;;;;1.50;1.00;;;;;15.73;61.00;100011.75;5055347;28;9515;-64
2022/05/26 02:32:42;;;;;;;;;3.00;2.00;;;;;15.73;61.28;100006.41;5055021;28;8939;-64
2022/05/26 02:35:09;;;;;;;;;2.00;2.00;;;;;15.73;61.56;100015.31;5055262;28;8826;-64
2022/05/26 02:37:37;;;;;;;;;1.00;1.00;;;;;15.72;61.02;100004.72;5055313;28;8862;-65
2022/05/26 02:40:05;;;;;;;;;1.50;1.00;;;;;15.71;61.38;100014.59;5055196;28;9555;-64
2022/05/26 02:42:33;;;;;;;;;2.00;2.00;;;;;15.71;61.35;100017.28;5055330;28;8873;-64
2022/05/26 02:45:00;;;;;;;;;4.00;4.00;;;;;15.72;61.57;100015.44;5055088;28;8857;-64
2022/05/26 02:47:28;;;;;;;;;3.00;3.00;;;;;15.71;61.46;100014.59;5054788;28;8872;-64
2022/05/26 02:49:56;;;;;;;;;4.00;4.00;;;;;15.70;61.31;100010.22;5054871;28;8854;-64
2022/05/26 02:52:24;;;;;;;;;4.00;3.00;;;;;15.71;61.29;100024.50;5054756;28;8882;-64
2022/05/26 02:54:52;;;;;;;;;2.00;2.00;;;;;15.68;61.34;100014.06;5055219;28;9488;-64
2022/05/26 02:57:19;;;;;;;;;3.25;3.25;;;;;15.66;61.42;100016.06;5054802;28;8834;-64
2022/05/26 02:59:47;;;;;;;;;4.00;4.00;;;;;15.65;61.53;100011.69;5037415;28;8849;-65
2022/05/26 03:02:16;;;;;;;;;3.25;3.00;;;;;15.63;61.12;100011.81;5035078;28;8859;-64
2022/05/26 03:04:43;;;;;;;;;4.50;4.00;;;;;15.62;61.56;100012.81;5034926;28;8848;-65
2022/05/26 03:07:11;;;;;;;;;1.50;1.50;;;;;15.60;61.84;100016.66;5034865;28;8825;-64
2022/05/26 03:09:39;;;;;;;;;5.25;3.00;;;;;15.58;62.52;100013.28;5035157;28;8845;-64
2022/05/26 03:12:07;;;;;;;;;2.75;2.75;;;;;15.56;62.12;100015.28;5037472;28;8891;-64
2022/05/26 03:14:34;;;;;;;;;3.50;3.50;;;;;15.55;62.16;100029.72;5038172;28;8894;-64
2022/05/26 03:17:02;;;;;;;;;4.00;4.00;;;;;15.53;62.50;100019.13;5038329;28;8840;-64
2022/05/26 03:19:31;;;;;;;;;3.25;3.00;;;;;15.53;62.28;100021.78;5037574;28;8855;-64
2022/05/26 03:21:59;;;;;;;;;4.00;3.00;;;;;15.53;62.58;100029.00;5037850;28;8836;-65
2022/05/26 03:24:26;;;;;;;;;1.50;1.50;;;;;15.54;62.54;100033.41;5037883;28;8857;-64
2022/05/26 03:26:54;;;;;;;;;4.50;3.00;;;;;15.54;62.19;100030.72;5037655;28;8828;-65
2022/05/26 03:29:22;;;;;;;;;3.00;3.00;;;;;15.52;62.66;100030.84;5053637;28;8834;-64
2022/05/26 03:31:50;;;;;;;;;2.00;2.00;;;;;15.53;63.02;100031.69;5058430;28;8846;-64
2022/05/26 03:42:33;;;;;;;;;3.75;3.25;;;;;15.49;63.21;100039.19;5056709;28;8863;-64
2022/05/26 03:45:01;;;;;;;;;2.50;2.00;;;;;15.47;63.27;100032.31;5056833;28;8858;-64
2022/05/26 03:47:29;;;;;;;;;3.00;3.00;;;;;15.46;63.27;100036.00;5057243;28;8987;-64
2022/05/26 03:49:58;;;;;;;;;3.50;3.00;;;;;15.46;63.32;100041.34;5057648;28;8822;-64
2022/05/26 03:52:25;;;;;;;;;2.50;1.00;;;;;15.47;63.16;100048.41;5057660;28;8819;-64
2022/05/26 03:54:53;;;;;;;;;4.00;4.00;;;;;15.46;63.48;100049.41;5057715;28;8866;-65
2022/05/26 03:57:21;;;;;;;;;1.50;1.00;;;;;15.46;63.19;100041.34;5057344;28;8848;-64
2022/05/26 03:59:49;;;;;;;;;1.00;1.00;;;;;15.46;63.58;100044.88;5037594;28;8817;-64
2022/05/26 04:02:17;;;;;;;;;3.00;3.00;;;;;15.44;63.65;100049.56;5037518;28;8829;-64
2022/05/26 04:04:45;;;;;;;;;3.50;3.50;;;;;15.44;63.52;100059.44;5037382;28;8871;-64
2022/05/26 04:07:13;;;;;;;;;3.75;3.75;;;;;15.44;63.56;100048.69;5037213;28;8974;-64
2022/05/26 04:09:41;;;;;;;;;3.00;2.50;;;;;15.44;64.03;100062.09;5037833;28;8840;-64
2022/05/26 04:12:08;;;;;;;;;3.50;3.50;;;;;15.44;64.01;100059.44;5037355;28;8856;-64
2022/05/26 04:14:36;;;;;;;;;1.50;1.50;;;;;15.43;63.69;100055.06;5036585;28;8836;-64
2022/05/26 04:17:03;;;;;;;;;3.50;3.50;;;;;15.44;64.04;100062.09;5036930;28;8852;-64
2022/05/26 04:19:31;;;;;;;;;3.00;3.00;;;;;15.44;63.90;100062.09;5037073;28;8990;-64
2022/05/26 04:22:18;;;;;;;;;0.25;0.25;;;;;15.44;63.89;100070.16;5036947;28;8859;-64
2022/05/26 04:24:46;;;;;;;;;3.25;3.25;;;;;15.44;64.15;100079.06;5037477;28;9522;-64
2022/05/26 04:27:13;;;;;;;;;2.50;2.50;;;;;15.46;63.98;100073.56;5036788;28;8934;-64
2022/05/26 04:29:41;;;;;;;;;1.00;0.00;;;;;15.43;63.94;100082.75;5056965;28;8830;-64
2022/05/26 04:32:09;;;;;;;;;2.00;1.00;;;;;15.39;63.86;100084.03;5056599;28;8834;-65
2022/05/26 04:34:37;;;;;;;;;3.50;3.50;;;;;15.38;64.51;100082.34;5057018;28;8858;-64
2022/05/26 04:37:04;;;;;;;;;3.50;3.50;;;;;15.34;64.36;100091.72;5056716;28;8973;-64
2022/05/26 04:39:32;;;;;;;;;3.00;3.00;;;;;15.25;64.84;100095.22;5056988;28;8850;-64
2022/05/26 04:42:00;;;;;;;;;4.00;4.00;;;;;15.18;65.04;100104.84;5056777;28;8831;-64
2022/05/26 04:44:28;;;;;;;;;1.00;1.00;;;;;15.00;65.31;100101.25;5056578;28;9522;-64
2022/05/26 04:46:55;;;;;;;;;3.00;3.00;;;;;14.79;65.78;100103.28;5056351;28;8860;-64
2022/05/26 04:49:23;;;;;;;;;2.50;2.50;;;;;14.65;66.16;100110.94;5056451;28;9522;-64
2022/05/26 04:51:51;;;;;;;;;3.00;3.00;;;;;14.52;67.05;100111.25;5056419;28;8864;-64
2022/05/26 04:54:18;;;;;;;;;4.50;4.00;;;;;14.43;67.09;100109.41;5055918;28;8838;-64
2022/05/26 04:56:46;;;;;;;;;4.00;3.25;;;;;14.36;67.63;100110.94;5056882;28;8834;-64
2022/05/26 04:59:14;;;;;;;;;6.00;4.00;;;;;14.31;67.53;100109.69;5039158;28;8834;-64
2022/05/26 05:01:42;;;;;;;;;3.00;3.00;;;;;14.25;68.00;100110.25;5035873;28;8836;-64
2022/05/26 05:04:10;;;;;;;;;3.50;3.50;;;;;14.22;67.47;100110.53;5036319;28;8959;-67
2022/05/26 05:06:38;;;;;;;;;1.50;1.00;;;;;14.21;67.98;100120.41;5035971;28;8837;-64
2022/05/26 05:09:05;;;;;;;;;4.00;3.25;;;;;14.20;67.69;100117.88;5036222;28;8844;-64
2022/05/26 05:11:33;;;;;;;;;5.50;5.00;;;;;14.20;68.13;100133.94;5036173;28;8840;-64
2022/05/26 05:14:01;;;;;;;;;3.00;3.00;;;;;14.21;67.96;100124.94;5036341;28;8880;-64
2022/05/26 05:16:29;;;;;;;;;3.00;3.00;;;;;14.23;67.81;100128.31;5036178;28;8850;-64
2022/05/26 05:18:57;;;;;;;;;4.00;4.00;;;;;14.23;67.82;100123.81;5035996;28;8849;-64
2022/05/26 05:21:25;;;;;;;;;4.50;4.50;;;;;14.22;67.89;100127.47;5035564;28;8832;-64
2022/05/26 05:23:53;;;;;;;;;4.00;4.00;;;;;14.24;68.27;100146.06;5036129;28;8817;-64
2022/05/26 05:26:21;;;;;;;;;2.00;2.00;;;;;14.23;68.31;100128.31;5035828;28;9486;-65
2022/05/26 05:28:49;;;;;;;;;3.25;1.50;;;;;14.23;68.20;100141.69;5048511;28;8814;-64
2022/05/26 05:31:19;;;;;;;;;3.50;3.50;;;;;14.26;68.37;100147.63;5055829;28;8860;-64
2022/05/26 05:33:47;;;;;;;;;3.00;3.00;;;;;14.35;68.31;100145.94;5055112;28;8823;-64
2022/05/26 05:36:15;;;;;;;;;3.00;3.00;;;;;14.44;67.77;100142.41;5055591;28;8852;-64
2022/05/26 05:38:43;;;;;;;;;6.00;4.00;;;;;14.53;68.09;100144.22;5055396;28;9028;-64
2022/05/26 05:41:11;;;;;;;;;3.00;3.00;;;;;14.61;68.02;100144.38;5054172;28;8913;-65
2022/05/26 05:43:38;;;;;;;;;2.00;1.00;;;;;14.68;67.36;100153.53;5053833;28;8858;-64
2022/05/26 05:46:06;;;;;;;;;1.00;0.50;;;;;14.75;67.43;100162.69;5053901;28;8957;-64
2022/05/26 05:48:34;;;;;;;;;3.00;3.00;;;;;14.80;67.74;100163.13;5053907;28;8838;-64
2022/05/26 05:51:02;;;;;;;;;4.00;4.00;;;;;14.83;67.60;100171.72;5054540;28;8860;-65
2022/05/26 05:53:29;;;;;;;;;1.00;1.00;;;;;14.86;67.21;100165.25;5053843;28;8931;-65
2022/05/26 05:55:57;;;;;;;;;5.33;3.00;;;;;14.89;67.53;100172.97;5054452;28;9551;-64
2022/05/26 05:58:25;;;;;;;;;6.00;4.00;;;;;14.92;67.43;100176.22;5045058;28;8825;-64
2022/05/26 06:00:54;;;;;;;;;4.50;4.00;;;;;14.96;67.09;100174.09;5035751;28;8828;-64
2022/05/26 06:03:22;;;;;;;;;4.50;4.00;;;;;14.98;67.50;100172.97;5034662;28;8976;-64
2022/05/26 06:05:50;;;;;;;;;6.00;4.00;;;;;15.04;67.58;100175.09;5035339;28;8865;-64
2022/05/26 06:08:21;;;;;;;;;5.50;5.50;;;;;15.08;67.23;100176.47;5034718;28;8858;-66
2022/05/26 06:10:49;;;;;;;;;5.50;5.50;;;;;15.13;66.77;100170.66;5034229;28;8840;-65
2022/05/26 06:13:17;;;;;;;;;7.00;6.25;;;;;15.15;66.83;100174.91;5035011;28;8894;-65
2022/05/26 06:15:50;;;;;;;;;7.00;6.00;;;;;15.18;67.13;100181.81;5034519;28;9761;-65
2022/05/26 06:18:18;;;;;;;;;3.75;3.75;;;;;15.23;67.28;100187.56;5034618;28;8828;-64
2022/05/26 06:20:46;;;;;;;;;9.25;6.75;;;;;15.28;66.53;100180.81;5034209;28;8850;-65
2022/05/26 06:23:13;;;;;;;;;8.00;6.50;;;;;15.36;66.68;100183.63;5034516;28;8974;-65
2022/05/26 06:25:41;;;;;;;;;8.50;7.50;;;;;15.44;66.78;100199.00;5035544;28;8975;-65
2022/05/26 06:30:54;;;;;;;;;6.25;6.00;;;;;15.49;66.55;100186.81;5055414;28;8860;-65
2022/05/26 06:38:53;;;;;;;;;11.50;10.00;;;;;15.66;66.64;100201.31;5055556;28;8857;-65
2022/05/26 06:44:10;;;;;;;;;12.50;11.50;;;;;15.78;66.40;100200.13;5055072;28;8996;-65
2022/05/26 06:46:38;;;;;;;;;6.50;6.50;;;;;15.84;65.93;100205.75;5055699;28;9035;-65
2022/05/26 06:49:06;;;;;;;;;15.00;13.00;;;;;15.90;65.82;100212.38;5056703;28;8834;-65
2022/05/26 06:51:36;;;;;;;;;15.00;12.00;;;;;15.90;66.42;100207.00;5056786;28;9531;-65
2022/05/26 06:54:04;;;;;;;;;18.25;16.00;;;;;15.90;66.50;100207.00;5057419;28;8838;-65
2022/05/26 06:56:31;;;;;;;;;10.00;9.50;;;;;15.87;66.70;100208.16;5058362;28;8838;-65
2022/05/26 06:58:59;;;;;;;;;11.50;9.75;;;;;15.90;66.24;100218.59;5042032;28;8866;-65
2022/05/26 07:01:27;;;;;;;;;13.00;12.75;;;;;15.95;66.44;100212.78;5039129;28;8832;-65
2022/05/26 07:03:55;;;;;;;;;8.50;7.00;;;;;16.00;66.60;100218.56;5038455;28;8921;-65
2022/05/26 07:06:23;;;;;;;;;12.50;10.25;;;;;16.02;66.38;100222.78;5038464;28;8967;-65
2022/05/26 07:08:50;;;;;;;;;12.00;10.50;;;;;16.06;66.45;100228.69;5038577;28;8840;-65
2022/05/26 07:11:18;;;;;;;;;11.50;10.00;;;;;16.08;65.65;100229.41;5038198;28;8836;-65
2022/05/26 07:13:46;;;;;;;;;10.25;7.50;;;;;16.09;66.06;100228.41;5038574;28;8853;-65
2022/05/26 07:16:14;;;;;;;;;12.25;11.00;;;;;16.15;66.37;100239.38;5038327;28;8866;-65
2022/05/26 07:18:41;;;;;;;;;11.50;11.50;;;;;16.24;66.14;100233.09;5038173;28;8853;-66
2022/05/26 07:21:09;;;;;;;;;11.50;9.50;;;;;16.35;65.66;100239.09;5038648;28;8967;-65
2022/05/26 07:23:37;;;;;;;;;13.50;10.50;;;;;16.45;65.27;100237.25;5038244;28;8833;-65
2022/05/26 07:26:05;;;;;;;;;12.75;12.75;;;;;16.53;65.23;100240.03;5041523;28;8846;-65
2022/05/26 07:28:32;;;;;;;;;15.00;12.25;;;;;16.61;64.78;100248.16;5057819;28;8858;-65
2022/05/26 07:31:02;;;;;;;;;15.00;12.75;;;;;16.63;65.01;100250.72;5058110;28;8873;-65
2022/05/26 07:33:30;;;;;;;;;15.00;13.50;;;;;16.66;64.87;100253.09;5057952;28;9508;-65
2022/05/26 07:35:58;;;;;;;;;11.25;10.00;;;;;16.74;65.20;100258.53;5056838;28;8927;-65
2022/05/26 07:41:20;;;;;;;;;12.00;9.50;;;;;16.81;64.62;100257.78;5058127;28;8866;-65
2022/05/26 07:43:48;;;;;;;;;14.25;14.25;;;;;16.78;64.86;100258.09;5057620;28;8866;-65
2022/05/26 07:46:20;;;;;;;;;15.75;12.50;;;;;16.74;65.37;100258.53;5057553;28;9512;-65
2022/05/26 07:48:48;;;;;;;;;8.00;7.00;;;;;16.75;65.08;100260.22;5057674;28;8838;-65
2022/05/26 07:51:19;;;;;;;;;16.50;11.75;;;;;16.85;65.41;100261.84;5057601;28;8826;-66
2022/05/26 07:53:47;;;;;;;;;10.00;9.25;;;;;17.04;64.89;100250.09;5058078;28;8846;-65
2022/05/26 07:56:14;;;;;;;;;17.50;14.25;;;;;17.20;63.99;100255.59;5052299;28;8837;-65
2022/05/26 07:58:43;;;;;;;;;16.00;15.50;;;;;17.32;64.22;100259.75;5036679;28;8836;-65
2022/05/26 08:01:11;;;;;;;;;18.50;16.50;;;;;17.45;63.65;100266.44;5037335;28;8849;-65
2022/05/26 08:03:39;;;;;;;;;16.40;12.60;;;;;17.58;63.75;100266.84;5037504;28;8852;-66
2022/05/26 08:06:07;;;;;;;;;11.00;10.00;;;;;17.73;63.27;100267.97;5037471;28;8979;-66
2022/05/26 08:08:34;;;;;;;;;15.50;13.00;;;;;17.84;62.96;100262.28;5037130;28;8856;-65
2022/05/26 08:11:02;;;;;;;;;10.00;10.00;;;;;17.92;63.03;100267.72;5037208;28;8970;-66
2022/05/26 08:13:30;;;;;;;;;17.75;14.50;;;;;17.96;63.09;100269.09;5036662;28;9582;-65
2022/05/26 08:15:58;;;;;;;;;12.75;11.50;;;;;17.94;62.99;100279.22;5036506;28;8962;-65
2022/05/26 08:18:27;;;;;;;;;16.75;13.00;;;;;18.01;63.39;100274.88;5035503;28;8943;-65
2022/05/26 08:20:55;;;;;;;;;13.40;12.00;;;;;18.06;62.55;100275.22;5036201;28;8856;-66
2022/05/26 08:23:25;;;;;;;;;13.50;13.00;;;;;18.11;63.25;100275.56;5036943;28;9526;-65
2022/05/26 08:25:53;;;;;;;;;13.25;10.50;;;;;18.30;63.03;100277.19;5037948;28;8848;-66
2022/05/26 08:28:22;;;;;;;;;13.40;13.40;;;;;18.53;62.13;100281.81;5049425;28;8828;-65
2022/05/26 08:30:50;;;;;;;;;16.00;13.00;;;;;18.61;62.17;100286.41;5036639;28;9526;-65
2022/05/26 08:33:17;;;;;;;;;13.80;12.40;;;;;18.62;62.19;100291.66;5036633;28;8986;-65
2022/05/26 08:35:45;;;;;;;;;12.60;11.60;;;;;18.60;61.99;100295.50;5036366;28;8856;-66
2022/05/26 08:38:13;;;;;;;;;11.20;9.80;;;;;18.56;62.41;100297.69;5035764;28;8839;-67
2022/05/26 08:40:42;;;;;;;;;15.20;13.80;;;;;18.55;61.95;100301.41;5035740;28;8840;-65
2022/05/26 08:43:10;;;;;;;;;14.80;11.20;;;;;18.51;62.41;100307.28;5036423;28;8848;-66
2022/05/26 08:45:37;;;;;;;;;9.80;7.80;;;;;18.41;63.06;100315.50;5036370;28;8845;-66
2022/05/26 08:48:05;;;;;;;;;15.60;10.20;;;;;18.37;63.00;100314.13;5035836;28;8840;-65
2022/05/26 08:50:33;;;;;;;;;12.20;9.20;;;;;18.40;62.84;100312.97;5036011;28;9531;-66
2022/05/26 08:53:01;;;;;;;;;12.80;11.60;;;;;18.52;62.83;100308.97;5036488;28;8828;-65
2022/05/26 08:55:28;;;;;;;;;11.00;8.60;;;;;18.65;62.11;100307.50;5035831;28;8894;-65
2022/05/26 08:57:56;;;;;;;;;9.00;8.20;;;;;18.75;61.75;100308.19;5038169;28;8859;-65
2022/05/26 09:00:24;;;;;;;;;12.20;10.00;;;;;18.92;61.37;100318.03;5053977;28;8830;-65
2022/05/26 09:02:53;;;;;;;;;9.00;8.20;;;;;19.04;61.62;100318.56;5054607;28;8853;-66
2022/05/26 09:05:21;;;;;;;;;12.20;12.00;;;;;19.12;60.93;100324.78;5055969;28;8842;-65
2022/05/26 09:13:19;;;;;;;;;9.20;8.20;;;;;18.69;62.17;100325.06;5055574;28;8992;-65
2022/05/26 09:15:47;;;;;;;;;11.00;9.80;;;;;18.59;62.17;100318.94;5054336;28;8854;-66
2022/05/26 09:18:15;;;;;;;;;9.40;8.20;;;;;18.48;62.34;100321.94;5054446;28;8923;-65
2022/05/26 09:20:43;;;;;;;;;9.20;8.40;;;;;18.37;62.83;100324.09;5055361;28;8930;-65
2022/05/26 09:23:10;;;;;;;;;10.40;6.80;;;;;18.35;62.61;100329.63;5054968;28;9519;-65
2022/05/26 09:25:39;;;;;;;;;9.40;8.40;;;;;18.40;62.49;100324.63;5053830;28;8852;-65
2022/05/26 09:28:06;;;;;;;;;7.60;7.60;;;;;18.52;62.36;100325.16;5035470;28;8878;-64
2022/05/26 09:30:34;;;;;;;;;9.00;8.60;;;;;18.63;62.34;100325.72;5035725;28;8859;-65
2022/05/26 09:33:02;;;;;;;;;7.80;7.80;;;;;18.77;61.90;100325.09;5035730;28;8849;-65
2022/05/26 09:35:30;;;;;;;;;9.80;9.60;;;;;18.86;61.57;100334.88;5034531;28;9805;-64
2022/05/26 09:37:57;;;;;;;;;8.60;8.20;;;;;18.91;61.30;100339.78;5035001;28;8848;-65
2022/05/26 09:40:25;;;;;;;;;9.40;9.40;;;;;19.01;60.91;100340.47;5034457;28;8828;-64
2022/05/26 09:42:53;;;;;;;;;7.20;6.00;;;;;19.04;60.67;100346.38;5034496;28;8995;-65
2022/05/26 09:45:20;;;;;;;;;5.80;4.00;;;;;19.18;61.16;100343.03;5034861;28;8848;-65
2022/05/26 09:47:48;;;;;;;;;9.00;9.00;;;;;19.48;59.78;100346.97;5034279;28;8862;-68
2022/05/26 09:50:16;;;;;;;;;8.00;7.00;;;;;19.67;59.68;100343.94;5035042;28;8844;-65
2022/05/26 09:52:44;;;;;;;;;5.20;5.20;;;;;19.81;59.13;100352.19;5035626;28;8875;-65
2022/05/26 09:55:12;;;;;;;;;8.20;8.20;;;;;20.08;59.01;100346.44;5034880;28;8846;-66
2022/05/26 09:57:40;;;;;;;;;10.00;7.00;;;;;20.48;57.42;100335.47;5050450;28;8842;-65
2022/05/26 10:00:08;;;;;;;;;8.40;7.60;;;;;20.85;57.24;100341.91;5053943;28;8838;-65
2022/05/26 10:02:35;;;;;;;;;7.00;7.00;;;;;21.12;56.41;100340.59;5053732;28;8850;-65
2022/05/26 10:05:03;;;;;;;;;8.20;7.20;;;;;21.48;55.63;100342.50;5054717;28;8940;-65
2022/05/26 10:07:31;;;;;;;;;7.00;5.00;;;;;21.62;55.67;100333.59;5054628;28;9574;-64
2022/05/26 10:10:00;;;;;;;;;8.40;7.80;;;;;21.57;55.81;100336.00;5055095;28;8842;-65
2022/05/26 10:12:28;;;;;;;;;5.00;4.40;;;;;21.34;56.36;100345.19;5054521;28;8838;-65
2022/05/26 10:14:55;;;;;;;;;7.00;7.00;;;;;21.09;56.38;100340.94;5054813;28;8822;-65
2022/05/26 10:17:23;;;;;;;;;5.00;5.00;;;;;20.96;57.18;100354.25;5052925;28;8839;-65
2022/05/26 10:19:51;;;;;;;;;7.60;5.20;;;;;21.23;56.43;100348.28;5053199;28;8926;-64
2022/05/26 10:22:19;;;;;;;;;7.20;4.60;;;;;21.63;55.85;100345.28;5056774;28;8831;-64
2022/05/26 10:24:47;;;;;;;;;8.60;7.00;;;;;21.70;55.69;100349.00;5058013;28;8854;-66
2022/05/26 10:27:16;;;;;;;;;7.20;5.00;;;;;21.46;55.56;100350.00;5041520;28;8867;-65
2022/05/26 10:29:45;;;;;;;;;6.60;6.20;;;;;21.13;56.23;100358.53;5038540;28;8860;-65
2022/05/26 10:32:12;;;;;;;;;4.80;4.80;;;;;20.86;56.91;100356.28;5038871;28;8910;-65
2022/05/26 10:34:40;;;;;;;;;8.00;5.40;;;;;20.65;57.04;100360.63;5038871;28;8850;-65
2022/05/26 10:37:08;;;;;;;;;6.20;4.80;;;;;20.76;56.79;100361.06;5035887;28;8975;-65
2022/05/26 10:39:36;;;;;;;;;7.20;5.40;;;;;21.39;55.78;100356.31;5039112;28;8829;-64
2022/05/26 10:42:04;;;;;;;;;7.00;6.60;;;;;22.15;54.12;100346.16;5038878;28;8958;-66
2022/05/26 10:44:32;;;;;;;;;6.60;6.60;;;;;22.17;54.09;100352.25;5039421;28;8988;-64
2022/05/26 10:47:03;;;;;;;;;6.80;5.00;;;;;21.77;54.47;100358.03;5038547;28;9514;-65
2022/05/26 10:49:32;;;;;;;;;8.00;7.00;;;;;21.23;55.67;100356.41;5038553;28;8899;-65
2022/05/26 10:52:00;;;;;;;;;4.20;4.20;;;;;20.76;57.05;100363.78;5038214;28;8868;-65
2022/05/26 10:54:28;;;;;;;;;7.00;6.20;;;;;20.38;57.69;100366.47;5036667;28;8848;-65
2022/05/26 10:56:56;;;;;;;;;3.60;2.00;;;;;20.13;58.30;100365.72;5049269;28;8830;-65
2022/05/26 10:59:24;;;;;;;;;4.00;2.40;;;;;20.03;58.19;100370.41;5052587;28;8826;-66
2022/05/26 11:01:52;;;;;;;;;4.60;4.60;;;;;20.14;57.70;100370.09;5057600;28;8850;-65
2022/05/26 11:04:21;;;;;;;;;5.40;5.40;;;;;21.10;56.15;100359.72;5057796;28;8830;-65
2022/05/26 11:06:50;;;;;;;;;5.80;4.80;;;;;22.38;53.81;100336.88;5058027;28;8844;-65
2022/05/26 11:09:17;;;;;;;;;7.20;6.20;;;;;22.79;52.24;100342.69;5057640;28;8842;-65
2022/05/26 11:11:45;;;;;;;;;4.80;4.40;;;;;22.53;53.27;100342.38;5057911;28;8866;-65
2022/05/26 11:17:21;;;;;;;;;5.00;4.60;;;;;22.55;53.10;100351.16;5058146;28;8888;-65
2022/05/26 11:19:46;;;;;;;;;5.00;4.00;;;;;24.09;49.98;100346.75;5056396;28;9902;-65
2022/05/26 11:22:14;;;;;;;;;6.00;5.00;;;;;25.05;48.17;100345.63;5054488;28;8846;-65
2022/05/26 11:24:42;;;;;;;;;4.00;4.00;;;;;25.42;47.58;100339.69;5055138;28;8834;-65
2022/05/26 11:27:09;;;;;;;;;1.60;1.60;;;;;24.73;48.49;100346.31;5039690;28;8870;-66
2022/05/26 11:29:37;;;;;;;;;5.80;5.80;;;;;24.04;50.34;100357.41;5036297;28;8840;-66
2022/05/26 11:37:36;;;;;;;;;2.80;2.00;;;;;23.14;52.04;100366.31;5037556;28;8892;-66
2022/05/26 11:40:04;;;;;;;;;4.00;4.00;;;;;23.96;49.61;100361.09;5037117;28;8857;-65
2022/05/26 11:42:32;;;;;;;;;4.20;4.00;;;;;24.36;49.14;100345.91;5036658;28;8857;-65
2022/05/26 11:45:00;;;;;;;;;5.20;5.00;;;;;23.97;49.54;100364.69;5036931;28;8971;-65
2022/05/26 11:47:28;;;;;;;;;5.00;4.00;;;;;23.41;51.10;100363.72;5036451;28;8866;-65
2022/05/26 11:49:56;;;;;;;;;5.20;4.40;;;;;22.88;52.25;100368.69;5037020;28;8886;-65
2022/05/26 11:52:28;;;;;;;;;4.00;4.00;;;;;22.33;52.95;100377.31;5036187;28;8840;-65
2022/05/26 11:54:58;;;;;;;;;4.00;2.80;;;;;21.85;53.99;100385.94;5036127;28;8978;-66
2022/05/26 11:57:26;;;;;;;;;4.00;2.00;;;;;21.52;54.46;100391.78;5056279;28;8972;-66
2022/05/26 11:59:54;;;;;;;;;5.00;5.00;;;;;21.22;55.06;100389.97;5055984;28;8846;-65
2022/05/26 12:02:22;;;;;;;;;4.00;4.00;;;;;20.96;55.95;100390.28;5056428;28;8837;-65
2022/05/26 12:04:50;;;;;;;;;8.20;7.40;;;;;20.77;55.47;100389.00;5056116;28;8964;-65
2022/05/26 12:07:20;;;;;;;;;6.00;5.60;;;;;20.87;55.21;100376.97;5056834;28;8864;-64
2022/05/26 12:09:48;;;;;;;;;3.60;2.80;;;;;21.73;53.56;100365.75;5056459;28;8838;-65
2022/05/26 12:12:16;;;;;;;;;4.20;4.20;;;;;22.15;52.53;100357.03;5057344;28;8939;-65